Hlavní strana
METAR-TAF:

METAR-TAF

Letiště :

Letiště Portorož

Portorož, Slovinsko

zeměpisná šířka: 45-31N, zeměpisná délka: 013-34E, výška: 95 m

Aktuální stav počasí

Zpráva byla vytvořena před 18 minutami, v 01:30 UTC
Východojihovýchodní vítr 4 kt
Teplota 19°C
Vlhkost vzduchu 83%
Tlak 1017 hPa
Viditelnost 10 km a více

METAR: LJPZ 190130Z AUTO 11004KT 9999 NCD 19/16 Q1017

Čas: 03:48 (01:48 UTC)

Předpověď počasí

Zpráva byla vytvořena před 2 hodinami a 48 minutami, v 23:00 UTC
Předpověď platná od 19 v 00 UTC do 19 v 09 UTC
Východojihovýchodní vítr 5 kt
Viditelnost 10 km a více
Žádná oblačnost pod 1500 m, nevyskytují se cumulonimby.
Změna
od 19 v 08 UTC do 19 v 09 UTC
Severoseverozápadní vítr 5 kt

TAF: LJPZ 182300Z 1900/1909 12005KT CAVOK BECMG 1908/1909 33005KT

Stav a předpovědi počasí z více než 4 000 letišť (zprávy METAR a TAF).

Červené a žluté tečky na mapě představují dostupné meteorologické stanice.

Když kurzor umístíte na tečku, zobrazí se název stanice.

Pak kliknutím zobrazíte stav a předpověď počasí.

Chcete-li změnit mapu, kliknutím na zelené tlačítko se znaménkem +mapu přiblížíte, kliknutím na zelené tlačítko se znaménkem – mapu oddálíte a kliknutím na zelené šipky přejdete na sousední mapy.


METAR-TAF: